sensor_id;sensor_type;location;lat;lon;timestamp;temperature;humidity
39023;DHT22;25908;51.984;5.928;2022-09-09T00:00:20;17.10;96.80
39023;DHT22;25908;51.984;5.928;2022-09-09T00:03:02;17.00;96.60
39023;DHT22;25908;51.984;5.928;2022-09-09T00:05:49;17.00;96.70
39023;DHT22;25908;51.984;5.928;2022-09-09T00:08:23;17.00;96.70
39023;DHT22;25908;51.984;5.928;2022-09-09T00:10:58;17.00;96.90
39023;DHT22;25908;51.984;5.928;2022-09-09T00:13:48;17.00;97.00
39023;DHT22;25908;51.984;5.928;2022-09-09T00:16:19;17.00;97.10
39023;DHT22;25908;51.984;5.928;2022-09-09T00:21:35;17.00;97.20
39023;DHT22;25908;51.984;5.928;2022-09-09T00:24:08;17.00;97.00
39023;DHT22;25908;51.984;5.928;2022-09-09T00:26:40;17.00;97.20
39023;DHT22;25908;51.984;5.928;2022-09-09T00:31:34;17.00;97.20
39023;DHT22;25908;51.984;5.928;2022-09-09T00:34:16;17.00;97.30
39023;DHT22;25908;51.984;5.928;2022-09-09T00:36:45;17.00;97.50
39023;DHT22;25908;51.984;5.928;2022-09-09T00:39:38;17.10;97.60
39023;DHT22;25908;51.984;5.928;2022-09-09T00:44:37;17.10;97.50
39023;DHT22;25908;51.984;5.928;2022-09-09T00:49:59;17.10;97.30
39023;DHT22;25908;51.984;5.928;2022-09-09T00:55:41;17.10;97.50
39023;DHT22;25908;51.984;5.928;2022-09-09T00:58:10;17.10;97.50
39023;DHT22;25908;51.984;5.928;2022-09-09T01:00:44;17.10;97.50
39023;DHT22;25908;51.984;5.928;2022-09-09T01:03:37;17.00;97.40
39023;DHT22;25908;51.984;5.928;2022-09-09T01:23:00;16.90;97.20
39023;DHT22;25908;51.984;5.928;2022-09-09T01:28:34;16.90;97.20
39023;DHT22;25908;51.984;5.928;2022-09-09T01:31:04;16.80;97.20
39023;DHT22;25908;51.984;5.928;2022-09-09T01:33:31;16.80;97.20
39023;DHT22;25908;51.984;5.928;2022-09-09T01:35:57;16.80;97.20
39023;DHT22;25908;51.984;5.928;2022-09-09T01:38:27;16.80;97.30
39023;DHT22;25908;51.984;5.928;2022-09-09T01:40:54;16.70;97.20
39023;DHT22;25908;51.984;5.928;2022-09-09T01:43:23;16.70;97.10
39023;DHT22;25908;51.984;5.928;2022-09-09T01:45:54;16.70;97.10
39023;DHT22;25908;51.984;5.928;2022-09-09T01:48:22;16.70;97.10
39023;DHT22;25908;51.984;5.928;2022-09-09T01:50:48;16.70;97.10
39023;DHT22;25908;51.984;5.928;2022-09-09T01:53:15;16.60;97.10
39023;DHT22;25908;51.984;5.928;2022-09-09T01:56:01;16.60;97.10
39023;DHT22;25908;51.984;5.928;2022-09-09T01:58:45;16.60;97.20
39023;DHT22;25908;51.984;5.928;2022-09-09T02:03:57;16.50;97.00
39023;DHT22;25908;51.984;5.928;2022-09-09T02:06:40;16.50;97.10
39023;DHT22;25908;51.984;5.928;2022-09-09T02:09:07;16.50;97.10
39023;DHT22;25908;51.984;5.928;2022-09-09T02:11:36;16.50;97.00
39023;DHT22;25908;51.984;5.928;2022-09-09T02:14:13;16.50;96.90
39023;DHT22;25908;51.984;5.928;2022-09-09T02:16:44;16.50;97.20
39023;DHT22;25908;51.984;5.928;2022-09-09T02:21:40;16.40;96.90
39023;DHT22;25908;51.984;5.928;2022-09-09T02:24:08;16.40;96.90
39023;DHT22;25908;51.984;5.928;2022-09-09T02:26:40;16.40;96.90
39023;DHT22;25908;51.984;5.928;2022-09-09T02:29:20;16.40;96.80
39023;DHT22;25908;51.984;5.928;2022-09-09T02:31:47;16.30;96.80
39023;DHT22;25908;51.984;5.928;2022-09-09T02:34:17;16.30;96.80
39023;DHT22;25908;51.984;5.928;2022-09-09T02:36:46;16.30;96.80
39023;DHT22;25908;51.984;5.928;2022-09-09T02:39:12;16.20;96.80
39023;DHT22;25908;51.984;5.928;2022-09-09T02:41:40;16.20;96.90
39023;DHT22;25908;51.984;5.928;2022-09-09T02:44:14;16.20;97.00
39023;DHT22;25908;51.984;5.928;2022-09-09T02:47:10;16.20;96.90
39023;DHT22;25908;51.984;5.928;2022-09-09T02:50:13;16.20;96.80
39023;DHT22;25908;51.984;5.928;2022-09-09T02:55:24;16.10;96.90
39023;DHT22;25908;51.984;5.928;2022-09-09T02:57:55;16.10;96.90
39023;DHT22;25908;51.984;5.928;2022-09-09T03:00:26;16.10;96.90
39023;DHT22;25908;51.984;5.928;2022-09-09T03:02:53;16.10;97.20
39023;DHT22;25908;51.984;5.928;2022-09-09T03:05:20;16.10;96.90
39023;DHT22;25908;51.984;5.928;2022-09-09T03:07:46;16.10;97.00
39023;DHT22;25908;51.984;5.928;2022-09-09T03:10:12;16.00;97.00
39023;DHT22;25908;51.984;5.928;2022-09-09T03:12:38;16.00;97.00
39023;DHT22;25908;51.984;5.928;2022-09-09T03:15:05;16.00;97.00
39023;DHT22;25908;51.984;5.928;2022-09-09T03:17:30;16.00;97.00
39023;DHT22;25908;51.984;5.928;2022-09-09T03:19:56;16.00;97.00
39023;DHT22;25908;51.984;5.928;2022-09-09T03:22:24;16.00;97.00
39023;DHT22;25908;51.984;5.928;2022-09-09T03:24:51;16.00;97.00
39023;DHT22;25908;51.984;5.928;2022-09-09T03:27:17;16.00;97.10
39023;DHT22;25908;51.984;5.928;2022-09-09T03:29:42;16.00;97.10
39023;DHT22;25908;51.984;5.928;2022-09-09T03:32:08;15.90;97.00
39023;DHT22;25908;51.984;5.928;2022-09-09T03:34:36;15.90;97.00
39023;DHT22;25908;51.984;5.928;2022-09-09T03:37:04;15.90;97.20
39023;DHT22;25908;51.984;5.928;2022-09-09T03:39:30;15.90;97.30
39023;DHT22;25908;51.984;5.928;2022-09-09T03:41:56;15.90;97.30
39023;DHT22;25908;51.984;5.928;2022-09-09T03:44:21;15.90;97.30
39023;DHT22;25908;51.984;5.928;2022-09-09T03:46:47;15.90;97.50
39023;DHT22;25908;51.984;5.928;2022-09-09T03:49:13;15.90;97.50
39023;DHT22;25908;51.984;5.928;2022-09-09T03:51:38;15.90;97.50
39023;DHT22;25908;51.984;5.928;2022-09-09T03:54:04;15.90;97.60
39023;DHT22;25908;51.984;5.928;2022-09-09T03:56:33;15.90;97.60
39023;DHT22;25908;51.984;5.928;2022-09-09T03:58:59;15.90;97.60
39023;DHT22;25908;51.984;5.928;2022-09-09T04:01:24;15.90;97.60
39023;DHT22;25908;51.984;5.928;2022-09-09T04:03:50;15.90;97.70
39023;DHT22;25908;51.984;5.928;2022-09-09T04:06:15;15.90;97.80
39023;DHT22;25908;51.984;5.928;2022-09-09T04:08:42;15.90;97.70
39023;DHT22;25908;51.984;5.928;2022-09-09T04:11:08;15.90;97.80
39023;DHT22;25908;51.984;5.928;2022-09-09T04:13:35;15.90;97.90
39023;DHT22;25908;51.984;5.928;2022-09-09T04:16:03;15.90;97.90
39023;DHT22;25908;51.984;5.928;2022-09-09T04:18:29;16.00;98.00
39023;DHT22;25908;51.984;5.928;2022-09-09T04:20:55;16.00;98.00
39023;DHT22;25908;51.984;5.928;2022-09-09T04:23:25;15.90;98.10
39023;DHT22;25908;51.984;5.928;2022-09-09T04:25:53;16.00;98.00
39023;DHT22;25908;51.984;5.928;2022-09-09T04:28:20;16.00;98.00
39023;DHT22;25908;51.984;5.928;2022-09-09T04:30:46;16.00;97.90
39023;DHT22;25908;51.984;5.928;2022-09-09T04:33:13;16.00;97.80
39023;DHT22;25908;51.984;5.928;2022-09-09T04:35:39;16.00;97.80
39023;DHT22;25908;51.984;5.928;2022-09-09T04:38:08;16.10;97.90
39023;DHT22;25908;51.984;5.928;2022-09-09T04:40:34;16.00;97.90
39023;DHT22;25908;51.984;5.928;2022-09-09T04:43:01;16.10;97.90
39023;DHT22;25908;51.984;5.928;2022-09-09T04:45:28;16.10;98.00
39023;DHT22;25908;51.984;5.928;2022-09-09T04:47:54;16.10;98.10
39023;DHT22;25908;51.984;5.928;2022-09-09T04:50:20;16.10;98.10
39023;DHT22;25908;51.984;5.928;2022-09-09T04:52:45;16.10;98.00
39023;DHT22;25908;51.984;5.928;2022-09-09T04:55:11;16.10;98.00
39023;DHT22;25908;51.984;5.928;2022-09-09T04:57:38;16.20;97.90
39023;DHT22;25908;51.984;5.928;2022-09-09T05:00:04;16.20;98.00
39023;DHT22;25908;51.984;5.928;2022-09-09T05:02:30;16.20;97.90
39023;DHT22;25908;51.984;5.928;2022-09-09T05:04:55;16.20;97.90
39023;DHT22;25908;51.984;5.928;2022-09-09T05:07:21;16.20;98.10
39023;DHT22;25908;51.984;5.928;2022-09-09T05:09:47;16.20;98.40
39023;DHT22;25908;51.984;5.928;2022-09-09T05:12:15;16.20;98.20
39023;DHT22;25908;51.984;5.928;2022-09-09T05:14:42;16.20;98.20
39023;DHT22;25908;51.984;5.928;2022-09-09T05:17:08;16.20;98.10
39023;DHT22;25908;51.984;5.928;2022-09-09T05:19:33;16.30;98.20
39023;DHT22;25908;51.984;5.928;2022-09-09T05:21:59;16.30;98.30
39023;DHT22;25908;51.984;5.928;2022-09-09T05:24:26;16.30;98.30
39023;DHT22;25908;51.984;5.928;2022-09-09T05:26:52;16.30;98.40
39023;DHT22;25908;51.984;5.928;2022-09-09T05:29:17;16.30;98.40
39023;DHT22;25908;51.984;5.928;2022-09-09T05:31:45;16.40;98.40
39023;DHT22;25908;51.984;5.928;2022-09-09T05:34:10;16.40;98.50
39023;DHT22;25908;51.984;5.928;2022-09-09T05:36:36;16.40;98.60
39023;DHT22;25908;51.984;5.928;2022-09-09T05:39:02;16.40;98.60
39023;DHT22;25908;51.984;5.928;2022-09-09T05:41:28;16.40;98.50
39023;DHT22;25908;51.984;5.928;2022-09-09T05:43:54;16.50;98.50
39023;DHT22;25908;51.984;5.928;2022-09-09T05:46:21;16.50;98.50
39023;DHT22;25908;51.984;5.928;2022-09-09T05:48:48;16.50;98.40
39023;DHT22;25908;51.984;5.928;2022-09-09T05:51:19;16.50;98.40
39023;DHT22;25908;51.984;5.928;2022-09-09T05:53:47;16.60;98.50
39023;DHT22;25908;51.984;5.928;2022-09-09T05:56:14;16.60;98.50
39023;DHT22;25908;51.984;5.928;2022-09-09T05:58:40;16.60;98.30
39023;DHT22;25908;51.984;5.928;2022-09-09T06:01:11;16.60;98.40
39023;DHT22;25908;51.984;5.928;2022-09-09T06:03:38;16.60;98.10
39023;DHT22;25908;51.984;5.928;2022-09-09T06:06:07;16.70;98.30
39023;DHT22;25908;51.984;5.928;2022-09-09T06:08:38;16.70;98.10
39023;DHT22;25908;51.984;5.928;2022-09-09T06:11:15;16.60;98.20
39023;DHT22;25908;51.984;5.928;2022-09-09T06:13:41;16.70;98.30
39023;DHT22;25908;51.984;5.928;2022-09-09T06:16:11;16.70;98.30
39023;DHT22;25908;51.984;5.928;2022-09-09T06:18:38;16.80;98.40
39023;DHT22;25908;51.984;5.928;2022-09-09T06:21:06;16.80;98.30
39023;DHT22;25908;51.984;5.928;2022-09-09T06:23:33;16.90;98.30
39023;DHT22;25908;51.984;5.928;2022-09-09T06:26:04;16.90;98.20
39023;DHT22;25908;51.984;5.928;2022-09-09T06:28:32;16.90;98.00
39023;DHT22;25908;51.984;5.928;2022-09-09T06:31:06;17.00;97.90
39023;DHT22;25908;51.984;5.928;2022-09-09T06:33:35;17.00;98.10
39023;DHT22;25908;51.984;5.928;2022-09-09T06:36:03;17.10;97.80
39023;DHT22;25908;51.984;5.928;2022-09-09T06:38:29;17.10;97.80
39023;DHT22;25908;51.984;5.928;2022-09-09T06:40:57;17.10;97.80
39023;DHT22;25908;51.984;5.928;2022-09-09T06:43:24;17.20;97.60
39023;DHT22;25908;51.984;5.928;2022-09-09T06:46:14;17.20;97.50
39023;DHT22;25908;51.984;5.928;2022-09-09T06:48:40;17.20;97.60
39023;DHT22;25908;51.984;5.928;2022-09-09T06:51:28;17.30;97.80
39023;DHT22;25908;51.984;5.928;2022-09-09T06:53:55;17.50;97.70
39023;DHT22;25908;51.984;5.928;2022-09-09T06:56:25;17.60;97.20
39023;DHT22;25908;51.984;5.928;2022-09-09T06:58:52;17.70;96.80
39023;DHT22;25908;51.984;5.928;2022-09-09T07:01:20;17.70;96.80
39023;DHT22;25908;51.984;5.928;2022-09-09T07:03:52;17.90;96.90
39023;DHT22;25908;51.984;5.928;2022-09-09T07:08:49;18.40;96.00
39023;DHT22;25908;51.984;5.928;2022-09-09T07:11:15;18.60;95.30
39023;DHT22;25908;51.984;5.928;2022-09-09T07:13:41;18.60;95.10
39023;DHT22;25908;51.984;5.928;2022-09-09T07:16:09;18.70;94.90
39023;DHT22;25908;51.984;5.928;2022-09-09T07:18:35;18.80;93.90
39023;DHT22;25908;51.984;5.928;2022-09-09T07:21:02;18.80;94.80
39023;DHT22;25908;51.984;5.928;2022-09-09T07:23:29;18.90;94.70
39023;DHT22;25908;51.984;5.928;2022-09-09T07:25:55;19.00;94.20
39023;DHT22;25908;51.984;5.928;2022-09-09T07:28:21;19.00;93.90
39023;DHT22;25908;51.984;5.928;2022-09-09T07:30:58;19.00;94.00
39023;DHT22;25908;51.984;5.928;2022-09-09T07:33:24;18.90;93.90
39023;DHT22;25908;51.984;5.928;2022-09-09T07:35:51;18.80;93.90
39023;DHT22;25908;51.984;5.928;2022-09-09T07:38:17;18.80;94.40
39023;DHT22;25908;51.984;5.928;2022-09-09T07:40:43;18.80;93.80
39023;DHT22;25908;51.984;5.928;2022-09-09T07:43:09;18.90;94.20
39023;DHT22;25908;51.984;5.928;2022-09-09T07:45:35;19.00;94.10
39023;DHT22;25908;51.984;5.928;2022-09-09T07:48:01;19.20;94.20
39023;DHT22;25908;51.984;5.928;2022-09-09T07:50:27;19.30;93.60
39023;DHT22;25908;51.984;5.928;2022-09-09T07:52:53;19.50;93.40
39023;DHT22;25908;51.984;5.928;2022-09-09T07:55:20;19.50;93.70
39023;DHT22;25908;51.984;5.928;2022-09-09T07:57:46;19.60;93.20
39023;DHT22;25908;51.984;5.928;2022-09-09T08:00:12;19.50;93.20
39023;DHT22;25908;51.984;5.928;2022-09-09T08:02:38;19.50;92.80
39023;DHT22;25908;51.984;5.928;2022-09-09T08:05:04;19.40;93.10
39023;DHT22;25908;51.984;5.928;2022-09-09T08:07:31;19.30;92.70
39023;DHT22;25908;51.984;5.928;2022-09-09T08:09:57;19.30;92.30
39023;DHT22;25908;51.984;5.928;2022-09-09T08:12:22;19.30;92.90
39023;DHT22;25908;51.984;5.928;2022-09-09T08:14:48;19.20;92.80
39023;DHT22;25908;51.984;5.928;2022-09-09T08:17:14;19.20;93.00
39023;DHT22;25908;51.984;5.928;2022-09-09T08:19:40;19.10;92.30
39023;DHT22;25908;51.984;5.928;2022-09-09T08:22:05;19.00;92.80
39023;DHT22;25908;51.984;5.928;2022-09-09T08:24:31;18.90;92.60
39023;DHT22;25908;51.984;5.928;2022-09-09T08:26:56;18.80;93.00
39023;DHT22;25908;51.984;5.928;2022-09-09T08:29:22;18.70;92.80
39023;DHT22;25908;51.984;5.928;2022-09-09T08:31:54;18.70;92.70
39023;DHT22;25908;51.984;5.928;2022-09-09T08:34:21;18.70;92.80
39023;DHT22;25908;51.984;5.928;2022-09-09T08:36:48;18.80;92.90
39023;DHT22;25908;51.984;5.928;2022-09-09T08:39:16;18.80;93.00
39023;DHT22;25908;51.984;5.928;2022-09-09T08:55:52;18.60;93.10
39023;DHT22;25908;51.984;5.928;2022-09-09T08:58:23;18.60;93.10
39023;DHT22;25908;51.984;5.928;2022-09-09T09:11:38;18.70;92.90
39023;DHT22;25908;51.984;5.928;2022-09-09T09:14:11;18.70;93.00
39023;DHT22;25908;51.984;5.928;2022-09-09T09:19:28;18.80;92.40
39023;DHT22;25908;51.984;5.928;2022-09-09T09:22:18;18.80;92.20
39023;DHT22;25908;51.984;5.928;2022-09-09T09:24:55;18.90;92.10
39023;DHT22;25908;51.984;5.928;2022-09-09T09:30:19;18.90;91.50
39023;DHT22;25908;51.984;5.928;2022-09-09T09:33:14;18.90;91.40
39023;DHT22;25908;51.984;5.928;2022-09-09T09:35:40;18.90;91.60
39023;DHT22;25908;51.984;5.928;2022-09-09T09:38:17;18.90;91.60
39023;DHT22;25908;51.984;5.928;2022-09-09T09:41:09;18.80;91.70
39023;DHT22;25908;51.984;5.928;2022-09-09T09:43:36;18.80;91.60
39023;DHT22;25908;51.984;5.928;2022-09-09T09:46:17;18.90;91.70
39023;DHT22;25908;51.984;5.928;2022-09-09T09:48:44;18.90;91.80
39023;DHT22;25908;51.984;5.928;2022-09-09T09:51:13;19.00;91.50
39023;DHT22;25908;51.984;5.928;2022-09-09T09:53:41;19.00;91.60
39023;DHT22;25908;51.984;5.928;2022-09-09T09:56:10;19.10;91.10
39023;DHT22;25908;51.984;5.928;2022-09-09T10:03:56;19.40;90.90
39023;DHT22;25908;51.984;5.928;2022-09-09T10:06:33;19.50;90.40
39023;DHT22;25908;51.984;5.928;2022-09-09T10:08:59;19.60;90.30
39023;DHT22;25908;51.984;5.928;2022-09-09T10:19:09;19.40;89.50
39023;DHT22;25908;51.984;5.928;2022-09-09T10:21:58;19.30;90.30
39023;DHT22;25908;51.984;5.928;2022-09-09T10:27:36;19.20;90.10
39023;DHT22;25908;51.984;5.928;2022-09-09T10:30:17;19.20;90.40
39023;DHT22;25908;51.984;5.928;2022-09-09T10:35:40;19.20;90.60
39023;DHT22;25908;51.984;5.928;2022-09-09T10:38:30;19.30;90.60
39023;DHT22;25908;51.984;5.928;2022-09-09T10:41:13;19.30;90.60
39023;DHT22;25908;51.984;5.928;2022-09-09T10:44:05;19.30;90.20
39023;DHT22;25908;51.984;5.928;2022-09-09T10:47:02;19.30;90.40
39023;DHT22;25908;51.984;5.928;2022-09-09T10:50:00;19.30;90.20
39023;DHT22;25908;51.984;5.928;2022-09-09T10:55:24;19.20;90.60
39023;DHT22;25908;51.984;5.928;2022-09-09T10:57:52;19.20;91.00
39023;DHT22;25908;51.984;5.928;2022-09-09T11:00:24;19.20;91.30
39023;DHT22;25908;51.984;5.928;2022-09-09T11:02:55;19.20;91.20
39023;DHT22;25908;51.984;5.928;2022-09-09T11:05:41;19.20;91.20
39023;DHT22;25908;51.984;5.928;2022-09-09T11:08:12;19.30;91.30
39023;DHT22;25908;51.984;5.928;2022-09-09T11:10:47;19.40;90.80
39023;DHT22;25908;51.984;5.928;2022-09-09T11:13:25;19.40;90.90
39023;DHT22;25908;51.984;5.928;2022-09-09T11:16:05;19.40;90.60
39023;DHT22;25908;51.984;5.928;2022-09-09T11:18:38;19.50;90.40
39023;DHT22;25908;51.984;5.928;2022-09-09T11:21:05;19.40;90.20
39023;DHT22;25908;51.984;5.928;2022-09-09T11:23:42;19.40;90.50
39023;DHT22;25908;51.984;5.928;2022-09-09T11:26:17;19.40;90.90
39023;DHT22;25908;51.984;5.928;2022-09-09T11:28:58;19.30;91.80
39023;DHT22;25908;51.984;5.928;2022-09-09T11:34:37;19.40;92.60
39023;DHT22;25908;51.984;5.928;2022-09-09T11:37:17;19.50;92.80
39023;DHT22;25908;51.984;5.928;2022-09-09T11:39:53;19.50;92.60
39023;DHT22;25908;51.984;5.928;2022-09-09T11:42:24;19.50;92.00
39023;DHT22;25908;51.984;5.928;2022-09-09T11:44:50;19.50;92.00
39023;DHT22;25908;51.984;5.928;2022-09-09T11:49:54;19.50;92.30
39023;DHT22;25908;51.984;5.928;2022-09-09T11:52:25;19.40;92.10
39023;DHT22;25908;51.984;5.928;2022-09-09T12:00:48;19.50;92.10
39023;DHT22;25908;51.984;5.928;2022-09-09T12:06:25;19.50;92.40
39023;DHT22;25908;51.984;5.928;2022-09-09T12:08:57;19.50;92.80
39023;DHT22;25908;51.984;5.928;2022-09-09T12:11:28;19.50;93.10
39023;DHT22;25908;51.984;5.928;2022-09-09T12:13:57;19.40;93.60
39023;DHT22;25908;51.984;5.928;2022-09-09T12:16:34;19.40;93.30
39023;DHT22;25908;51.984;5.928;2022-09-09T12:19:20;19.50;93.30
39023;DHT22;25908;51.984;5.928;2022-09-09T12:21:49;19.60;93.20
39023;DHT22;25908;51.984;5.928;2022-09-09T12:24:37;19.70;93.00
39023;DHT22;25908;51.984;5.928;2022-09-09T12:27:18;19.70;92.80
39023;DHT22;25908;51.984;5.928;2022-09-09T12:30:09;19.60;92.80
39023;DHT22;25908;51.984;5.928;2022-09-09T12:32:35;19.60;92.70
39023;DHT22;25908;51.984;5.928;2022-09-09T12:35:22;19.60;92.90
39023;DHT22;25908;51.984;5.928;2022-09-09T12:37:55;19.70;92.70
39023;DHT22;25908;51.984;5.928;2022-09-09T12:40:34;19.70;92.20
39023;DHT22;25908;51.984;5.928;2022-09-09T12:43:02;19.80;92.10
39023;DHT22;25908;51.984;5.928;2022-09-09T12:45:41;19.80;92.30
39023;DHT22;25908;51.984;5.928;2022-09-09T12:48:08;19.80;91.80
39023;DHT22;25908;51.984;5.928;2022-09-09T12:50:43;19.80;91.80
39023;DHT22;25908;51.984;5.928;2022-09-09T12:53:16;19.80;92.20
39023;DHT22;25908;51.984;5.928;2022-09-09T12:56:00;19.80;91.80
39023;DHT22;25908;51.984;5.928;2022-09-09T12:58:28;19.80;92.00
39023;DHT22;25908;51.984;5.928;2022-09-09T13:00:58;19.80;91.80
39023;DHT22;25908;51.984;5.928;2022-09-09T13:03:25;19.80;91.90
39023;DHT22;25908;51.984;5.928;2022-09-09T13:05:51;19.70;91.60
39023;DHT22;25908;51.984;5.928;2022-09-09T13:08:18;19.70;92.00
39023;DHT22;25908;51.984;5.928;2022-09-09T13:13:23;19.60;92.40
39023;DHT22;25908;51.984;5.928;2022-09-09T13:15:52;19.60;92.40
39023;DHT22;25908;51.984;5.928;2022-09-09T13:18:22;19.50;92.90
39023;DHT22;25908;51.984;5.928;2022-09-09T13:20:49;19.50;93.50
39023;DHT22;25908;51.984;5.928;2022-09-09T13:23:17;19.60;93.70
39023;DHT22;25908;51.984;5.928;2022-09-09T13:25:57;19.60;93.90
39023;DHT22;25908;51.984;5.928;2022-09-09T13:28:25;19.70;93.70
39023;DHT22;25908;51.984;5.928;2022-09-09T13:31:23;19.80;93.40
39023;DHT22;25908;51.984;5.928;2022-09-09T13:33:50;19.80;93.30
39023;DHT22;25908;51.984;5.928;2022-09-09T13:36:28;19.80;93.00
39023;DHT22;25908;51.984;5.928;2022-09-09T13:38:59;19.80;92.90
39023;DHT22;25908;51.984;5.928;2022-09-09T13:41:43;19.80;92.70
39023;DHT22;25908;51.984;5.928;2022-09-09T13:44:25;19.90;93.30
39023;DHT22;25908;51.984;5.928;2022-09-09T13:47:19;19.90;92.80
39023;DHT22;25908;51.984;5.928;2022-09-09T13:49:46;20.00;92.70
39023;DHT22;25908;51.984;5.928;2022-09-09T13:52:16;20.10;92.40
39023;DHT22;25908;51.984;5.928;2022-09-09T13:54:42;20.10;92.10
39023;DHT22;25908;51.984;5.928;2022-09-09T13:57:34;20.00;91.50
39023;DHT22;25908;51.984;5.928;2022-09-09T14:00:01;19.90;91.90
39023;DHT22;25908;51.984;5.928;2022-09-09T14:02:26;19.90;92.10
39023;DHT22;25908;51.984;5.928;2022-09-09T14:04:52;19.90;92.00
39023;DHT22;25908;51.984;5.928;2022-09-09T14:07:20;19.80;91.90
39023;DHT22;25908;51.984;5.928;2022-09-09T14:09:46;19.70;91.90
39023;DHT22;25908;51.984;5.928;2022-09-09T14:12:15;19.60;92.30
39023;DHT22;25908;51.984;5.928;2022-09-09T14:14:41;19.60;92.30
39023;DHT22;25908;51.984;5.928;2022-09-09T14:17:08;19.60;92.50
39023;DHT22;25908;51.984;5.928;2022-09-09T14:19:34;19.60;92.20
39023;DHT22;25908;51.984;5.928;2022-09-09T14:22:00;19.60;92.20
39023;DHT22;25908;51.984;5.928;2022-09-09T14:24:26;19.60;92.00
39023;DHT22;25908;51.984;5.928;2022-09-09T14:26:52;19.70;92.10
39023;DHT22;25908;51.984;5.928;2022-09-09T14:29:17;19.70;91.70
39023;DHT22;25908;51.984;5.928;2022-09-09T14:31:43;19.60;91.60
39023;DHT22;25908;51.984;5.928;2022-09-09T14:34:09;19.60;91.70
39023;DHT22;25908;51.984;5.928;2022-09-09T14:36:36;19.50;92.00
39023;DHT22;25908;51.984;5.928;2022-09-09T14:39:03;19.50;92.30
39023;DHT22;25908;51.984;5.928;2022-09-09T14:41:29;19.50;92.20
39023;DHT22;25908;51.984;5.928;2022-09-09T14:43:55;19.50;92.20
39023;DHT22;25908;51.984;5.928;2022-09-09T14:46:21;19.50;92.40
39023;DHT22;25908;51.984;5.928;2022-09-09T14:48:47;19.40;92.40
39023;DHT22;25908;51.984;5.928;2022-09-09T14:51:18;19.50;92.70
39023;DHT22;25908;51.984;5.928;2022-09-09T14:53:48;19.60;92.30
39023;DHT22;25908;51.984;5.928;2022-09-09T14:56:19;19.50;92.20
39023;DHT22;25908;51.984;5.928;2022-09-09T14:58:46;19.60;92.20
39023;DHT22;25908;51.984;5.928;2022-09-09T15:01:14;19.60;92.20
39023;DHT22;25908;51.984;5.928;2022-09-09T15:03:42;19.70;92.10
39023;DHT22;25908;51.984;5.928;2022-09-09T15:06:13;19.70;92.10
39023;DHT22;25908;51.984;5.928;2022-09-09T15:08:41;19.80;92.10
39023;DHT22;25908;51.984;5.928;2022-09-09T15:11:07;19.80;92.00
39023;DHT22;25908;51.984;5.928;2022-09-09T15:13:34;19.90;91.80
39023;DHT22;25908;51.984;5.928;2022-09-09T15:16:07;19.90;91.90
39023;DHT22;25908;51.984;5.928;2022-09-09T15:18:33;19.90;91.70
39023;DHT22;25908;51.984;5.928;2022-09-09T15:21:02;19.90;91.70
39023;DHT22;25908;51.984;5.928;2022-09-09T15:23:28;19.90;91.80
39023;DHT22;25908;51.984;5.928;2022-09-09T15:25:56;19.90;91.50
39023;DHT22;25908;51.984;5.928;2022-09-09T15:28:22;19.90;91.60
39023;DHT22;25908;51.984;5.928;2022-09-09T15:30:49;19.80;92.00
39023;DHT22;25908;51.984;5.928;2022-09-09T15:33:17;19.90;92.40
39023;DHT22;25908;51.984;5.928;2022-09-09T15:35:43;19.80;92.80
39023;DHT22;25908;51.984;5.928;2022-09-09T15:38:08;19.80;93.00
39023;DHT22;25908;51.984;5.928;2022-09-09T15:40:34;19.80;93.10
39023;DHT22;25908;51.984;5.928;2022-09-09T15:42:59;19.80;93.40
39023;DHT22;25908;51.984;5.928;2022-09-09T15:45:25;19.80;93.40
39023;DHT22;25908;51.984;5.928;2022-09-09T15:47:52;19.70;93.20
39023;DHT22;25908;51.984;5.928;2022-09-09T15:50:17;19.60;93.50
39023;DHT22;25908;51.984;5.928;2022-09-09T15:52:43;19.60;93.70
39023;DHT22;25908;51.984;5.928;2022-09-09T15:55:09;19.60;93.40
39023;DHT22;25908;51.984;5.928;2022-09-09T15:57:35;19.60;93.20
39023;DHT22;25908;51.984;5.928;2022-09-09T16:00:03;19.60;92.80
39023;DHT22;25908;51.984;5.928;2022-09-09T16:02:29;19.50;92.60
39023;DHT22;25908;51.984;5.928;2022-09-09T16:04:56;19.50;92.40
39023;DHT22;25908;51.984;5.928;2022-09-09T16:07:22;19.50;92.90
39023;DHT22;25908;51.984;5.928;2022-09-09T16:09:48;19.50;92.70
39023;DHT22;25908;51.984;5.928;2022-09-09T16:12:17;19.50;93.60
39023;DHT22;25908;51.984;5.928;2022-09-09T16:14:44;19.40;94.00
39023;DHT22;25908;51.984;5.928;2022-09-09T16:17:10;19.20;93.80
39023;DHT22;25908;51.984;5.928;2022-09-09T16:19:36;19.10;94.40
39023;DHT22;25908;51.984;5.928;2022-09-09T16:22:03;19.00;94.30
39023;DHT22;25908;51.984;5.928;2022-09-09T16:24:29;18.90;94.80
39023;DHT22;25908;51.984;5.928;2022-09-09T16:26:55;18.90;95.20
39023;DHT22;25908;51.984;5.928;2022-09-09T16:29:22;18.80;95.60
39023;DHT22;25908;51.984;5.928;2022-09-09T16:31:48;18.80;95.60
39023;DHT22;25908;51.984;5.928;2022-09-09T16:34:16;18.80;95.70
39023;DHT22;25908;51.984;5.928;2022-09-09T16:36:43;18.70;96.00
39023;DHT22;25908;51.984;5.928;2022-09-09T16:39:16;18.70;96.10
39023;DHT22;25908;51.984;5.928;2022-09-09T16:41:43;18.70;96.40
39023;DHT22;25908;51.984;5.928;2022-09-09T16:44:10;18.70;96.70
39023;DHT22;25908;51.984;5.928;2022-09-09T16:46:39;18.70;96.80
39023;DHT22;25908;51.984;5.928;2022-09-09T16:49:08;18.70;97.00
39023;DHT22;25908;51.984;5.928;2022-09-09T16:51:42;18.70;96.80
39023;DHT22;25908;51.984;5.928;2022-09-09T16:54:09;18.60;96.60
39023;DHT22;25908;51.984;5.928;2022-09-09T16:56:38;18.60;96.50
39023;DHT22;25908;51.984;5.928;2022-09-09T16:59:06;18.60;96.30
39023;DHT22;25908;51.984;5.928;2022-09-09T17:01:37;18.60;96.20
39023;DHT22;25908;51.984;5.928;2022-09-09T17:04:06;18.60;96.20
39023;DHT22;25908;51.984;5.928;2022-09-09T17:06:33;18.50;96.00
39023;DHT22;25908;51.984;5.928;2022-09-09T17:09:05;18.50;96.10
39023;DHT22;25908;51.984;5.928;2022-09-09T17:11:31;18.50;96.30
39023;DHT22;25908;51.984;5.928;2022-09-09T17:13:58;18.50;96.60
39023;DHT22;25908;51.984;5.928;2022-09-09T17:16:25;18.50;96.60
39023;DHT22;25908;51.984;5.928;2022-09-09T17:18:52;18.50;96.80
39023;DHT22;25908;51.984;5.928;2022-09-09T17:21:20;18.40;96.80
39023;DHT22;25908;51.984;5.928;2022-09-09T17:23:47;18.50;96.90
39023;DHT22;25908;51.984;5.928;2022-09-09T17:26:14;18.50;97.20
39023;DHT22;25908;51.984;5.928;2022-09-09T17:28:41;18.40;97.20
39023;DHT22;25908;51.984;5.928;2022-09-09T17:31:10;18.40;97.20
39023;DHT22;25908;51.984;5.928;2022-09-09T17:33:40;18.40;97.30
39023;DHT22;25908;51.984;5.928;2022-09-09T17:38:40;18.40;97.20
39023;DHT22;25908;51.984;5.928;2022-09-09T17:41:13;18.40;97.20
39023;DHT22;25908;51.984;5.928;2022-09-09T17:43:39;18.30;97.20